Scout — WCZ2046 — position and weather

sailwx.info

Track history (hours):
 
Tides and Currents Weather Stations Pressure Air Temp Water Temp Dewpoint Dewpoint Depression Visibility Wind Speed Wind Dir Waves Ship Positions

Scout

Owner: CROWLEY MARINE SERVICES INC, SEATTLE, WA. More information available from US FCC via Universal Licensing System and Coast Guard Vessel Documentation Center.

Last reported at 2014-Oct-01 03:33 UTC. Time now 2014-Oct-01 04:10 UTC.
Position N 33°44' W 118°17'.

; draft 5.6 m.

Type: Tug. MMSI: 366764730.

Date/timePositionNaut miles runAvg speedWind from/ knotsBaromVisibWave heightAir tempDewpointWater temp
2014-Oct-01 03:33N 33°44' W 118°17'0 0.0
2014-Oct-01 02:33N 33°44' W 118°17'1 1.1
2014-Oct-01 01:33N 33°44' W 118°16'1 1.3
2014-Oct-01 00:33N 33°43' W 118°15'0 0.0
2014-Sep-30 23:33N 33°43' W 118°15'2 2.4
2014-Sep-30 22:33N 33°44' W 118°17'0 0.0
2014-Sep-30 21:33N 33°44' W 118°17'0 0.0
2014-Sep-30 20:33N 33°44' W 118°17'0 0.0
2014-Sep-30 19:27N 33°44' W 118°17'0 0.0
2014-Sep-30 18:27N 33°44' W 118°17'0 0.0
2014-Sep-30 14:33N 33°44' W 118°17'2 1.9
2014-Sep-30 13:32N 33°45' W 118°15'3 2.6
2014-Sep-30 12:33N 33°44' W 118°12'1 1.3
2014-Sep-30 11:31N 33°43' W 118°13'3 3.2
2014-Sep-30 10:33N 33°44' W 118°17'0 0.0
2014-Sep-30 09:33N 33°44' W 118°17'0 0.0
2014-Sep-30 08:33N 33°44' W 118°17'0 0.0
2014-Sep-30 07:33N 33°44' W 118°17'0 0.0
2014-Sep-30 05:31N 33°44' W 118°17'3 3.2
2014-Sep-30 04:33N 33°44' W 118°13'1 1.4
2014-Sep-30 03:33N 33°45' W 118°13'1 1.1
2014-Sep-30 02:33N 33°44' W 118°13'3 2.6
2014-Sep-30 01:27N 33°44' W 118°17'0 0.0
2014-Sep-30 00:33N 33°44' W 118°17'0 0.0
2014-Sep-29 23:33N 33°44' W 118°17'0 0.0
2014-Sep-29 22:33N 33°44' W 118°17'0 0.2
2014-Sep-29 21:33N 33°45' W 118°17'2 1.5
2014-Sep-29 20:33N 33°43' W 118°16'1 1.3
2014-Sep-29 19:26N 33°44' W 118°17'0 0.0
2014-Sep-29 18:33N 33°44' W 118°17'0 0.0
2014-Sep-29 17:33N 33°44' W 118°17'0 0.0
2014-Sep-29 16:33N 33°44' W 118°17'0 0.0
2014-Sep-29 15:33N 33°44' W 118°17'0 0.0
2014-Sep-29 14:32N 33°44' W 118°17'0 0.0
2014-Sep-29 12:25N 33°44' W 118°17'2 2.0
2014-Sep-29 11:33N 33°44' W 118°15'1 1.5
2014-Sep-29 10:33N 33°44' W 118°16'1 0.7
2014-Sep-29 09:31N 33°44' W 118°17'0 0.0
2014-Sep-29 07:33N 33°44' W 118°17'0 0.0
2014-Sep-29 06:23N 33°44' W 118°17'0 0.0
2014-Sep-29 05:19N 33°44' W 118°17'0 0.0
2014-Sep-29 04:19N 33°44' W 118°17'0 0.0
2014-Sep-29 03:32N 33°44' W 118°17'0 0.0
2014-Sep-29 02:32N 33°44' W 118°17'0 0.0
2014-Sep-29 01:33N 33°44' W 118°17'0 0.0
2014-Sep-29 00:33N 33°44' W 118°17'0 0.0
2014-Sep-28 23:28N 33°44' W 118°17'0 0.0
2014-Sep-28 22:33N 33°44' W 118°17'3 3.2
2014-Sep-28 21:33N 33°45' W 118°13'1 0.5
2014-Sep-28 20:34N 33°45' W 118°13'3 1.5
2014-Sep-28 18:28N 33°44' W 118°17'0 0.1
2014-Sep-28 17:28N 33°44' W 118°17'0 0.0
2014-Sep-28 16:33N 33°44' W 118°17'0 0.0
2014-Sep-28 15:29N 33°44' W 118°17'0 0.0
2014-Sep-28 14:33N 33°44' W 118°17'0 0.0
2014-Sep-28 13:33N 33°44' W 118°17'0 0.4
2014-Sep-28 12:33N 33°45' W 118°16'1 0.4
2014-Sep-28 11:21N 33°44' W 118°17'0 0.0
2014-Sep-28 07:32N 33°44' W 118°17'0 0.0
2014-Sep-28 06:25N 33°44' W 118°17'1 0.1
2014-Sep-28 00:33N 33°44' W 118°17'0 0.0
2014-Sep-27 18:31N 33°44' W 118°17'0 0.4
2014-Sep-27 17:32N 33°44' W 118°17'0 0.0
2014-Sep-27 13:18N 33°44' W 118°17'1 1.1
2014-Sep-27 12:33N 33°45' W 118°16'0 0.3
2014-Sep-27 11:33N 33°45' W 118°16'1 0.5
2014-Sep-27 10:33N 33°44' W 118°17'0 0.0
2014-Sep-27 09:32N 33°44' W 118°17'0 0.0
2014-Sep-27 08:31N 33°44' W 118°17'0 0.0
2014-Sep-27 07:05N 33°44' W 118°17'0 0.0
2014-Sep-27 06:26N 33°44' W 118°17'2 2.3
2014-Sep-27 05:33N 33°43' W 118°15'3 2.9
2014-Sep-27 04:33N 33°45' W 118°13'0 0.1
2014-Sep-27 03:33N 33°45' W 118°13'3 2.6
2014-Sep-27 02:13N 33°44' W 118°17'0 0.1
2014-Sep-27 01:33N 33°44' W 118°17'0 0.0
2014-Sep-27 00:33N 33°44' W 118°17'0 0.0
2014-Sep-26 23:33N 33°44' W 118°17'0 0.0
2014-Sep-26 22:33N 33°44' W 118°17'0 0.0
2014-Sep-26 21:33N 33°44' W 118°17'0 0.0
2014-Sep-26 20:33N 33°44' W 118°17'0 0.0
2014-Sep-26 19:33N 33°44' W 118°17'0 0.0
2014-Sep-26 18:33N 33°44' W 118°17'0 0.0
2014-Sep-26 17:33N 33°44' W 118°17'1 1.2
2014-Sep-26 16:33N 33°44' W 118°15'1 1.2
2014-Sep-26 15:33N 33°43' W 118°15'1 1.1
2014-Sep-26 14:33N 33°43' W 118°16'4 3.5
2014-Sep-26 13:33N 33°46' W 118°14'1 0.9
2014-Sep-26 12:34N 33°46' W 118°15'2 2.0
2014-Sep-26 11:32N 33°45' W 118°17'1 1.0
2014-Sep-26 10:33N 33°45' W 118°16'1 1.1
2014-Sep-26 09:33N 33°44' W 118°17'0 0.0
2014-Sep-26 08:33N 33°44' W 118°17'0 0.0
2014-Sep-26 07:33N 33°44' W 118°17'1 0.5
2014-Sep-26 06:33N 33°44' W 118°16'1 1.3
2014-Sep-26 05:33N 33°44' W 118°15'1 1.2
2014-Sep-26 04:33N 33°43' W 118°16'2 1.6
2014-Sep-26 03:33N 33°44' W 118°17'0 0.0
2014-Sep-26 02:33N 33°44' W 118°17'0 0.0
2014-Sep-26 01:33N 33°44' W 118°17'0 0.0
2014-Sep-26 00:33N 33°44' W 118°17'0 0.0
2014-Sep-25 23:33N 33°44' W 118°17'0 0.0
2014-Sep-25 22:33N 33°44' W 118°17'0 0.0
2014-Sep-25 21:33N 33°44' W 118°17'3 2.5
2014-Sep-25 20:33N 33°42' W 118°15'8 7.5
2014-Sep-25 19:33N 33°43' W 118°24'8 7.9
2014-Sep-25 18:33N 33°50' W 118°28'4 4.1
2014-Sep-25 17:33N 33°54' W 118°27'1 1.4
2014-Sep-25 16:33N 33°53' W 118°27'0 0.4
2014-Sep-25 15:33N 33°53' W 118°27'2 2.2
2014-Sep-25 14:33N 33°51' W 118°28'9 9.0
2014-Sep-25 13:33N 33°43' W 118°24'9 8.7
2014-Sep-25 12:33N 33°43' W 118°14'1 1.4
2014-Sep-25 11:33N 33°44' W 118°12'1 0.9
2014-Sep-25 10:33N 33°43' W 118°13'3 3.4
2014-Sep-25 09:33N 33°44' W 118°17'0 0.0
2014-Sep-25 08:33N 33°44' W 118°17'0 0.0
2014-Sep-25 07:33N 33°44' W 118°17'0 0.0
2014-Sep-25 06:33N 33°44' W 118°17'1 1.2
2014-Sep-25 05:33N 33°46' W 118°16'0 0.4
2014-Sep-25 04:33N 33°45' W 118°16'0 0.5
2014-Sep-25 03:33N 33°45' W 118°16'2 2.4
2014-Sep-25 02:33N 33°43' W 118°15'2 1.8
2014-Sep-25 01:33N 33°44' W 118°13'2 2.0
2014-Sep-25 00:33N 33°46' W 118°13'0 0.2
2014-Sep-24 23:34N 33°46' W 118°13'2 1.9
2014-Sep-24 22:34N 33°45' W 118°12'1 1.0
2014-Sep-24 21:33N 33°44' W 118°12'1 0.7
2014-Sep-24 20:33N 33°44' W 118°12'1 1.0
2014-Sep-24 19:33N 33°45' W 118°13'2 1.5
2014-Sep-24 18:33N 33°44' W 118°12'1 1.3
2014-Sep-24 17:33N 33°45' W 118°13'0 0.1
2014-Sep-24 16:33N 33°45' W 118°13'3 3.4
2014-Sep-24 15:33N 33°44' W 118°17'0 0.0
2014-Sep-24 14:33N 33°44' W 118°17'0 0.0
2014-Sep-24 13:33N 33°44' W 118°17'0 0.0
2014-Sep-24 12:33N 33°44' W 118°17'0 0.0
2014-Sep-24 11:33N 33°44' W 118°17'0 0.0
2014-Sep-24 10:33N 33°44' W 118°17'0 0.0
2014-Sep-24 09:33N 33°44' W 118°17'0 0.0
2014-Sep-24 08:33N 33°44' W 118°17'0 0.0
2014-Sep-24 07:33N 33°44' W 118°17'0 0.0
2014-Sep-24 06:33N 33°44' W 118°17'0 0.0
2014-Sep-24 05:33N 33°44' W 118°17'0 0.0
2014-Sep-24 04:34N 33°44' W 118°17'0 0.0
2014-Sep-24 03:33N 33°44' W 118°17'0 0.0
2014-Sep-24 02:33N 33°44' W 118°17'0 0.0
2014-Sep-24 01:33N 33°44' W 118°17'0 0.0
2014-Sep-24 00:33N 33°44' W 118°17'5 4.5
2014-Sep-23 23:33N 33°44' W 118°11'1 0.5
2014-Sep-23 22:33N 33°44' W 118°11'5 4.9
2014-Sep-23 21:33N 33°44' W 118°17'0 0.0
2014-Sep-23 20:34N 33°44' W 118°17'3 2.8
2014-Sep-23 19:33N 33°44' W 118°13'2 2.4
2014-Sep-23 18:33N 33°46' W 118°13'0 0.2
2014-Sep-23 17:33N 33°46' W 118°13'4 3.5
2014-Sep-23 16:33N 33°44' W 118°17'0 0.0
2014-Sep-23 15:32N 33°44' W 118°17'0 0.0
2014-Sep-23 14:32N 33°44' W 118°17'0 0.0
2014-Sep-23 13:33N 33°44' W 118°17'0 0.0
2014-Sep-23 12:28N 33°44' W 118°17'0 0.0
2014-Sep-23 11:27N 33°44' W 118°17'0 0.0
2014-Sep-23 10:33N 33°44' W 118°17'0 0.0
2014-Sep-23 09:26N 33°44' W 118°17'0 0.0
2014-Sep-23 08:33N 33°44' W 118°17'0 0.0
2014-Sep-23 07:16N 33°44' W 118°17'0 0.0
2014-Sep-23 06:33N 33°44' W 118°17'0 0.0
2014-Sep-23 05:32N 33°44' W 118°17'0 0.0
2014-Sep-23 04:29N 33°44' W 118°17'0 0.1
2014-Sep-23 03:34N 33°44' W 118°17'1 1.3
2014-Sep-23 02:33N 33°45' W 118°16'1 1.3
2014-Sep-23 01:33N 33°44' W 118°17'0 0.0
2014-Sep-23 00:33N 33°44' W 118°17'0 0.0
2014-Sep-22 23:33N 33°44' W 118°17'0 0.0
2014-Sep-22 22:23N 33°44' W 118°17'3 3.6
2014-Sep-22 21:33N 33°43' W 118°13'2 1.5
2014-Sep-22 20:33N 33°45' W 118°13'0 0.2
2014-Sep-22 19:34N 33°45' W 118°12'4 3.5
2014-Sep-22 18:32N 33°43' W 118°16'1 1.0
2014-Sep-22 17:28N 33°44' W 118°17'0 0.0
2014-Sep-22 16:12N 33°44' W 118°17'0 0.1
2014-Sep-22 15:17N 33°44' W 118°17'0 0.1
2014-Sep-22 14:11N 33°44' W 118°17'0 0.0
2014-Sep-22 13:29N 33°44' W 118°17'0 0.0
2014-Sep-22 12:24N 33°44' W 118°17'1 1.6
2014-Sep-22 11:33N 33°44' W 118°15'1 1.1
2014-Sep-22 10:34N 33°43' W 118°15'1 0.7
2014-Sep-22 09:33N 33°43' W 118°16'1 1.3
2014-Sep-22 08:31N 33°44' W 118°17'0 0.0
2014-Sep-22 06:14N 33°44' W 118°17'0 0.0
2014-Sep-22 04:31N 33°44' W 118°17'0 0.0
2014-Sep-22 03:33N 33°44' W 118°17'0 0.0
2014-Sep-22 02:32N 33°44' W 118°17'2 2.1
2014-Sep-22 01:33N 33°43' W 118°15'3 3.3
2014-Sep-22 00:33N 33°46' W 118°14'2 1.6
2014-Sep-21 23:33N 33°45' W 118°16'1 1.2
2014-Sep-21 22:31N 33°44' W 118°17'0 0.0
2014-Sep-21 21:33N 33°44' W 118°17'0 0.0
2014-Sep-21 20:32N 33°44' W 118°17'0 0.0
2014-Sep-21 19:32N 33°44' W 118°17'0 0.0
2014-Sep-21 18:30N 33°44' W 118°17'1 1.4
2014-Sep-21 17:33N 33°46' W 118°16'0 0.2
2014-Sep-21 16:34N 33°45' W 118°16'3 2.8
2014-Sep-21 15:28N 33°43' W 118°14'3 3.5
2014-Sep-21 14:33N 33°46' W 118°13'0 0.2
2014-Sep-21 13:33N 33°46' W 118°13'3 3.1
2014-Sep-21 12:26N 33°44' W 118°17'2 1.8
2014-Sep-21 11:33N 33°46' W 118°17'0 0.4
2014-Sep-21 10:33N 33°46' W 118°17'1 0.4
2014-Sep-21 07:16N 33°44' W 118°17'  
Track history (hours):
 
Tides and Currents Weather Stations Pressure Air Temp Water Temp Dewpoint Dewpoint Depression Visibility Wind Speed Wind Dir Waves Ship Positions

Scout

Owner: CROWLEY MARINE SERVICES INC, SEATTLE, WA. More information available from US FCC via Universal Licensing System and Coast Guard Vessel Documentation Center.

Last reported at 2014-Oct-01 03:33 UTC. Time now 2014-Oct-01 04:10 UTC.
Position N 33°44' W 118°17'.

; draft 5.6 m.

Type: Tug. MMSI: 366764730.

Date/timePositionNaut miles runAvg speedWind from/ knotsBaromVisibWave heightAir tempDewpointWater temp
2014-Oct-01 03:33N 33°44' W 118°17'0 0.0
2014-Oct-01 02:33N 33°44' W 118°17'1 1.1
2014-Oct-01 01:33N 33°44' W 118°16'1 1.3
2014-Oct-01 00:33N 33°43' W 118°15'0 0.0
2014-Sep-30 23:33N 33°43' W 118°15'2 2.4
2014-Sep-30 22:33N 33°44' W 118°17'0 0.0
2014-Sep-30 21:33N 33°44' W 118°17'0 0.0
2014-Sep-30 20:33N 33°44' W 118°17'0 0.0
2014-Sep-30 19:27N 33°44' W 118°17'0 0.0
2014-Sep-30 18:27N 33°44' W 118°17'0 0.0
2014-Sep-30 14:33N 33°44' W 118°17'2 1.9
2014-Sep-30 13:32N 33°45' W 118°15'3 2.6
2014-Sep-30 12:33N 33°44' W 118°12'1 1.3
2014-Sep-30 11:31N 33°43' W 118°13'3 3.2
2014-Sep-30 10:33N 33°44' W 118°17'0 0.0
2014-Sep-30 09:33N 33°44' W 118°17'0 0.0
2014-Sep-30 08:33N 33°44' W 118°17'0 0.0
2014-Sep-30 07:33N 33°44' W 118°17'0 0.0
2014-Sep-30 05:31N 33°44' W 118°17'3 3.2
2014-Sep-30 04:33N 33°44' W 118°13'1 1.4
2014-Sep-30 03:33N 33°45' W 118°13'1 1.1
2014-Sep-30 02:33N 33°44' W 118°13'3 2.6
2014-Sep-30 01:27N 33°44' W 118°17'0 0.0
2014-Sep-30 00:33N 33°44' W 118°17'0 0.0
2014-Sep-29 23:33N 33°44' W 118°17'0 0.0
2014-Sep-29 22:33N 33°44' W 118°17'0 0.2
2014-Sep-29 21:33N 33°45' W 118°17'2 1.5
2014-Sep-29 20:33N 33°43' W 118°16'1 1.3
2014-Sep-29 19:26N 33°44' W 118°17'0 0.0
2014-Sep-29 18:33N 33°44' W 118°17'0 0.0
2014-Sep-29 17:33N 33°44' W 118°17'0 0.0
2014-Sep-29 16:33N 33°44' W 118°17'0 0.0
2014-Sep-29 15:33N 33°44' W 118°17'0 0.0
2014-Sep-29 14:32N 33°44' W 118°17'0 0.0
2014-Sep-29 12:25N 33°44' W 118°17'2 2.0
2014-Sep-29 11:33N 33°44' W 118°15'1 1.5
2014-Sep-29 10:33N 33°44' W 118°16'1 0.7
2014-Sep-29 09:31N 33°44' W 118°17'0 0.0
2014-Sep-29 07:33N 33°44' W 118°17'0 0.0
2014-Sep-29 06:23N 33°44' W 118°17'0 0.0
2014-Sep-29 05:19N 33°44' W 118°17'0 0.0
2014-Sep-29 04:19N 33°44' W 118°17'0 0.0
2014-Sep-29 03:32N 33°44' W 118°17'0 0.0
2014-Sep-29 02:32N 33°44' W 118°17'0 0.0
2014-Sep-29 01:33N 33°44' W 118°17'0 0.0
2014-Sep-29 00:33N 33°44' W 118°17'0 0.0
2014-Sep-28 23:28N 33°44' W 118°17'0 0.0
2014-Sep-28 22:33N 33°44' W 118°17'3 3.2
2014-Sep-28 21:33N 33°45' W 118°13'1 0.5
2014-Sep-28 20:34N 33°45' W 118°13'3 1.5
2014-Sep-28 18:28N 33°44' W 118°17'0 0.1
2014-Sep-28 17:28N 33°44' W 118°17'0 0.0
2014-Sep-28 16:33N 33°44' W 118°17'0 0.0
2014-Sep-28 15:29N 33°44' W 118°17'0 0.0
2014-Sep-28 14:33N 33°44' W 118°17'0 0.0
2014-Sep-28 13:33N 33°44' W 118°17'0 0.4
2014-Sep-28 12:33N 33°45' W 118°16'1 0.4
2014-Sep-28 11:21N 33°44' W 118°17'0 0.0
2014-Sep-28 07:32N 33°44' W 118°17'0 0.0
2014-Sep-28 06:25N 33°44' W 118°17'1 0.1
2014-Sep-28 00:33N 33°44' W 118°17'0 0.0
2014-Sep-27 18:31N 33°44' W 118°17'0 0.4
2014-Sep-27 17:32N 33°44' W 118°17'0 0.0
2014-Sep-27 13:18N 33°44' W 118°17'1 1.1
2014-Sep-27 12:33N 33°45' W 118°16'0 0.3
2014-Sep-27 11:33N 33°45' W 118°16'1 0.5
2014-Sep-27 10:33N 33°44' W 118°17'0 0.0
2014-Sep-27 09:32N 33°44' W 118°17'0 0.0
2014-Sep-27 08:31N 33°44' W 118°17'0 0.0
2014-Sep-27 07:05N 33°44' W 118°17'0 0.0
2014-Sep-27 06:26N 33°44' W 118°17'2 2.3
2014-Sep-27 05:33N 33°43' W 118°15'3 2.9
2014-Sep-27 04:33N 33°45' W 118°13'0 0.1
2014-Sep-27 03:33N 33°45' W 118°13'3 2.6
2014-Sep-27 02:13N 33°44' W 118°17'0 0.1
2014-Sep-27 01:33N 33°44' W 118°17'0 0.0
2014-Sep-27 00:33N 33°44' W 118°17'0 0.0
2014-Sep-26 23:33N 33°44' W 118°17'0 0.0
2014-Sep-26 22:33N 33°44' W 118°17'0 0.0
2014-Sep-26 21:33N 33°44' W 118°17'0 0.0
2014-Sep-26 20:33N 33°44' W 118°17'0 0.0
2014-Sep-26 19:33N 33°44' W 118°17'0 0.0
2014-Sep-26 18:33N 33°44' W 118°17'0 0.0
2014-Sep-26 17:33N 33°44' W 118°17'1 1.2
2014-Sep-26 16:33N 33°44' W 118°15'1 1.2
2014-Sep-26 15:33N 33°43' W 118°15'1 1.1
2014-Sep-26 14:33N 33°43' W 118°16'4 3.5
2014-Sep-26 13:33N 33°46' W 118°14'1 0.9
2014-Sep-26 12:34N 33°46' W 118°15'2 2.0
2014-Sep-26 11:32N 33°45' W 118°17'1 1.0
2014-Sep-26 10:33N 33°45' W 118°16'1 1.1
2014-Sep-26 09:33N 33°44' W 118°17'0 0.0
2014-Sep-26 08:33N 33°44' W 118°17'0 0.0
2014-Sep-26 07:33N 33°44' W 118°17'1 0.5
2014-Sep-26 06:33N 33°44' W 118°16'1 1.3
2014-Sep-26 05:33N 33°44' W 118°15'1 1.2
2014-Sep-26 04:33N 33°43' W 118°16'2 1.6
2014-Sep-26 03:33N 33°44' W 118°17'0 0.0
2014-Sep-26 02:33N 33°44' W 118°17'0 0.0
2014-Sep-26 01:33N 33°44' W 118°17'0 0.0
2014-Sep-26 00:33N 33°44' W 118°17'0 0.0
2014-Sep-25 23:33N 33°44' W 118°17'0 0.0
2014-Sep-25 22:33N 33°44' W 118°17'0 0.0
2014-Sep-25 21:33N 33°44' W 118°17'3 2.5
2014-Sep-25 20:33N 33°42' W 118°15'8 7.5
2014-Sep-25 19:33N 33°43' W 118°24'8 7.9
2014-Sep-25 18:33N 33°50' W 118°28'4 4.1
2014-Sep-25 17:33N 33°54' W 118°27'1 1.4
2014-Sep-25 16:33N 33°53' W 118°27'0 0.4
2014-Sep-25 15:33N 33°53' W 118°27'2 2.2
2014-Sep-25 14:33N 33°51' W 118°28'9 9.0
2014-Sep-25 13:33N 33°43' W 118°24'9 8.7
2014-Sep-25 12:33N 33°43' W 118°14'1 1.4
2014-Sep-25 11:33N 33°44' W 118°12'1 0.9
2014-Sep-25 10:33N 33°43' W 118°13'3 3.4
2014-Sep-25 09:33N 33°44' W 118°17'0 0.0
2014-Sep-25 08:33N 33°44' W 118°17'0 0.0
2014-Sep-25 07:33N 33°44' W 118°17'0 0.0
2014-Sep-25 06:33N 33°44' W 118°17'1 1.2
2014-Sep-25 05:33N 33°46' W 118°16'0 0.4
2014-Sep-25 04:33N 33°45' W 118°16'0 0.5
2014-Sep-25 03:33N 33°45' W 118°16'2 2.4
2014-Sep-25 02:33N 33°43' W 118°15'2 1.8
2014-Sep-25 01:33N 33°44' W 118°13'2 2.0
2014-Sep-25 00:33N 33°46' W 118°13'0 0.2
2014-Sep-24 23:34N 33°46' W 118°13'2 1.9
2014-Sep-24 22:34N 33°45' W 118°12'1 1.0
2014-Sep-24 21:33N 33°44' W 118°12'1 0.7
2014-Sep-24 20:33N 33°44' W 118°12'1 1.0
2014-Sep-24 19:33N 33°45' W 118°13'2 1.5
2014-Sep-24 18:33N 33°44' W 118°12'1 1.3
2014-Sep-24 17:33N 33°45' W 118°13'0 0.1
2014-Sep-24 16:33N 33°45' W 118°13'3 3.4
2014-Sep-24 15:33N 33°44' W 118°17'0 0.0
2014-Sep-24 14:33N 33°44' W 118°17'0 0.0
2014-Sep-24 13:33N 33°44' W 118°17'0 0.0
2014-Sep-24 12:33N 33°44' W 118°17'0 0.0
2014-Sep-24 11:33N 33°44' W 118°17'0 0.0
2014-Sep-24 10:33N 33°44' W 118°17'0 0.0
2014-Sep-24 09:33N 33°44' W 118°17'0 0.0
2014-Sep-24 08:33N 33°44' W 118°17'0 0.0
2014-Sep-24 07:33N 33°44' W 118°17'0 0.0
2014-Sep-24 06:33N 33°44' W 118°17'0 0.0
2014-Sep-24 05:33N 33°44' W 118°17'0 0.0
2014-Sep-24 04:34N 33°44' W 118°17'0 0.0
2014-Sep-24 03:33N 33°44' W 118°17'0 0.0
2014-Sep-24 02:33N 33°44' W 118°17'0 0.0
2014-Sep-24 01:33N 33°44' W 118°17'0 0.0
2014-Sep-24 00:33N 33°44' W 118°17'5 4.5
2014-Sep-23 23:33N 33°44' W 118°11'1 0.5
2014-Sep-23 22:33N 33°44' W 118°11'5 4.9
2014-Sep-23 21:33N 33°44' W 118°17'0 0.0
2014-Sep-23 20:34N 33°44' W 118°17'3 2.8
2014-Sep-23 19:33N 33°44' W 118°13'2 2.4
2014-Sep-23 18:33N 33°46' W 118°13'0 0.2
2014-Sep-23 17:33N 33°46' W 118°13'4 3.5
2014-Sep-23 16:33N 33°44' W 118°17'0 0.0
2014-Sep-23 15:32N 33°44' W 118°17'0 0.0
2014-Sep-23 14:32N 33°44' W 118°17'0 0.0
2014-Sep-23 13:33N 33°44' W 118°17'0 0.0
2014-Sep-23 12:28N 33°44' W 118°17'0 0.0
2014-Sep-23 11:27N 33°44' W 118°17'0 0.0
2014-Sep-23 10:33N 33°44' W 118°17'0 0.0
2014-Sep-23 09:26N 33°44' W 118°17'0 0.0
2014-Sep-23 08:33N 33°44' W 118°17'0 0.0
2014-Sep-23 07:16N 33°44' W 118°17'0 0.0
2014-Sep-23 06:33N 33°44' W 118°17'0 0.0
2014-Sep-23 05:32N 33°44' W 118°17'0 0.0
2014-Sep-23 04:29N 33°44' W 118°17'0 0.1
2014-Sep-23 03:34N 33°44' W 118°17'1 1.3
2014-Sep-23 02:33N 33°45' W 118°16'1 1.3
2014-Sep-23 01:33N 33°44' W 118°17'0 0.0
2014-Sep-23 00:33N 33°44' W 118°17'0 0.0
2014-Sep-22 23:33N 33°44' W 118°17'0 0.0
2014-Sep-22 22:23N 33°44' W 118°17'3 3.6
2014-Sep-22 21:33N 33°43' W 118°13'2 1.5
2014-Sep-22 20:33N 33°45' W 118°13'0 0.2
2014-Sep-22 19:34N 33°45' W 118°12'4 3.5
2014-Sep-22 18:32N 33°43' W 118°16'1 1.0
2014-Sep-22 17:28N 33°44' W 118°17'0 0.0
2014-Sep-22 16:12N 33°44' W 118°17'0 0.1
2014-Sep-22 15:17N 33°44' W 118°17'0 0.1
2014-Sep-22 14:11N 33°44' W 118°17'0 0.0
2014-Sep-22 13:29N 33°44' W 118°17'0 0.0
2014-Sep-22 12:24N 33°44' W 118°17'1 1.6
2014-Sep-22 11:33N 33°44' W 118°15'1 1.1
2014-Sep-22 10:34N 33°43' W 118°15'1 0.7
2014-Sep-22 09:33N 33°43' W 118°16'1 1.3
2014-Sep-22 08:31N 33°44' W 118°17'0 0.0
2014-Sep-22 06:14N 33°44' W 118°17'0 0.0
2014-Sep-22 04:31N 33°44' W 118°17'0 0.0
2014-Sep-22 03:33N 33°44' W 118°17'0 0.0
2014-Sep-22 02:32N 33°44' W 118°17'2 2.1
2014-Sep-22 01:33N 33°43' W 118°15'3 3.3
2014-Sep-22 00:33N 33°46' W 118°14'2 1.6
2014-Sep-21 23:33N 33°45' W 118°16'1 1.2
2014-Sep-21 22:31N 33°44' W 118°17'0 0.0
2014-Sep-21 21:33N 33°44' W 118°17'0 0.0
2014-Sep-21 20:32N 33°44' W 118°17'0 0.0
2014-Sep-21 19:32N 33°44' W 118°17'0 0.0
2014-Sep-21 18:30N 33°44' W 118°17'1 1.4
2014-Sep-21 17:33N 33°46' W 118°16'0 0.2
2014-Sep-21 16:34N 33°45' W 118°16'3 2.8
2014-Sep-21 15:28N 33°43' W 118°14'3 3.5
2014-Sep-21 14:33N 33°46' W 118°13'0 0.2
2014-Sep-21 13:33N 33°46' W 118°13'3 3.1
2014-Sep-21 12:26N 33°44' W 118°17'2 1.8
2014-Sep-21 11:33N 33°46' W 118°17'0 0.4
2014-Sep-21 10:33N 33°46' W 118°17'1 0.4
2014-Sep-21 07:16N 33°44' W 118°17'  

Dump ship's entire track history